Time;durP1;ratioP1;P1;durP2;ratioP2;P2;SDS_P1;SDS_P2;PMS_P1;PMS_P2;Temp;Humidity;BMP_temperature;BMP_pressure;BME280_temperature;BME280_humidity;BME280_pressure;Samples;Min_cycle;Max_cycle;Signal;HPM_P1;HPM_P2
2022/10/14 00:00:12;;;;;;;0.10;0.10;;;14.50;99.90;;;;;;5030521;28;20204;-78
2022/10/14 00:02:38;;;;;;;0.10;0.10;;;14.40;99.90;;;;;;5033390;28;20230;-79
2022/10/14 00:05:03;;;;;;;0.10;0.10;;;14.40;99.90;;;;;;5032295;28;20658;-78
2022/10/14 00:07:29;;;;;;;0.10;0.10;;;14.40;99.90;;;;;;5034051;28;20197;-79
2022/10/14 00:09:54;;;;;;;0.10;0.10;;;14.40;99.90;;;;;;5031845;28;21315;-78
2022/10/14 00:12:20;;;;;;;0.10;0.10;;;14.40;99.90;;;;;;5033050;28;20283;-79
2022/10/14 00:14:46;;;;;;;0.10;0.10;;;14.50;99.90;;;;;;5034546;28;20700;-79
2022/10/14 00:17:11;;;;;;;0.10;0.10;;;14.50;99.90;;;;;;5034413;28;20594;-78
2022/10/14 00:19:37;;;;;;;0.10;0.10;;;14.50;99.90;;;;;;5032873;28;20203;-79
2022/10/14 00:22:02;;;;;;;0.10;0.10;;;14.50;99.90;;;;;;5032841;28;20599;-78
2022/10/14 00:24:28;;;;;;;0.10;0.10;;;14.50;99.90;;;;;;5031268;28;20185;-78
2022/10/14 00:26:53;;;;;;;0.10;0.10;;;14.50;99.90;;;;;;5031670;28;20202;-78
2022/10/14 00:29:19;;;;;;;0.10;0.10;;;14.50;99.90;;;;;;5032695;28;20229;-78
2022/10/14 00:31:46;;;;;;;0.10;0.10;;;14.50;99.90;;;;;;5033038;28;20656;-79
2022/10/14 00:34:14;;;;;;;0.10;0.10;;;14.50;99.90;;;;;;5032856;28;20200;-79
2022/10/14 00:36:41;;;;;;;0.10;0.10;;;14.40;99.90;;;;;;5032015;28;20255;-79
2022/10/14 00:39:06;;;;;;;0.10;0.10;;;14.40;99.90;;;;;;5031537;28;20212;-78
2022/10/14 00:41:33;;;;;;;0.10;0.10;;;14.40;99.90;;;;;;5032092;28;20249;-78
2022/10/14 00:44:14;;;;;;;0.10;0.10;;;14.40;99.90;;;;;;5031769;28;20193;-78
2022/10/14 00:46:42;;;;;;;0.10;0.10;;;14.30;99.90;;;;;;5033489;28;20218;-78
2022/10/14 00:49:32;;;;;;;0.10;0.10;;;14.40;99.90;;;;;;5029371;28;20235;-78
2022/10/14 00:52:20;;;;;;;0.10;0.10;;;14.40;99.90;;;;;;5031609;28;20227;-78
2022/10/14 00:54:46;;;;;;;0.10;0.10;;;14.40;99.90;;;;;;5029143;28;20683;-78
2022/10/14 00:57:12;;;;;;;0.10;0.10;;;14.40;99.90;;;;;;5029513;28;20224;-79
2022/10/14 00:59:38;;;;;;;0.10;0.10;;;14.40;99.90;;;;;;5028851;28;20215;-78
2022/10/14 01:02:04;;;;;;;0.10;0.10;;;14.40;99.90;;;;;;5035462;28;20189;-78
2022/10/14 01:04:30;;;;;;;0.10;0.10;;;14.30;99.90;;;;;;5033302;28;20192;-79
2022/10/14 01:07:06;;;;;;;0.10;0.10;;;14.20;99.90;;;;;;5033400;28;20240;-79
2022/10/14 01:09:45;;;;;;;0.10;0.10;;;14.30;99.90;;;;;;5035343;28;20225;-79
2022/10/14 01:12:27;;;;;;;0.00;0.00;;;14.30;99.90;;;;;;5034625;28;20199;-79
2022/10/14 01:15:03;;;;;;;0.10;0.10;;;14.30;99.90;;;;;;5034575;28;20534;-79
2022/10/14 01:17:34;;;;;;;0.10;0.10;;;14.30;99.90;;;;;;5036570;28;20857;-79
2022/10/14 01:20:24;;;;;;;0.00;0.00;;;14.40;99.90;;;;;;5033005;28;20265;-79
2022/10/14 01:23:24;;;;;;;0.10;0.10;;;14.40;99.90;;;;;;5034993;28;20673;-78
2022/10/14 01:26:08;;;;;;;0.10;0.10;;;14.40;99.90;;;;;;5035581;28;20196;-79
2022/10/14 01:28:47;;;;;;;0.10;0.10;;;14.40;99.90;;;;;;5035647;28;20199;-79
2022/10/14 01:31:19;;;;;;;0.10;0.10;;;14.40;99.90;;;;;;5036169;28;20329;-79
2022/10/14 01:33:49;;;;;;;0.10;0.10;;;14.40;99.90;;;;;;5035340;28;20554;-78
2022/10/14 01:36:24;;;;;;;0.10;0.10;;;14.40;99.90;;;;;;5036232;28;20223;-78
2022/10/14 01:39:13;;;;;;;0.10;0.10;;;14.40;99.90;;;;;;5035101;28;20231;-78
2022/10/14 01:41:45;;;;;;;0.10;0.10;;;14.40;99.90;;;;;;5034350;28;20217;-78
2022/10/14 01:44:12;;;;;;;0.10;0.10;;;14.40;99.90;;;;;;5034276;28;20243;-78
2022/10/14 01:46:42;;;;;;;0.10;0.10;;;14.40;99.90;;;;;;5033722;28;20256;-78
2022/10/14 01:49:18;;;;;;;0.10;0.10;;;14.40;99.90;;;;;;5031057;28;20216;-78
2022/10/14 01:51:48;;;;;;;0.10;0.10;;;14.40;99.90;;;;;;5035021;28;20208;-79
2022/10/14 01:54:18;;;;;;;0.10;0.10;;;14.40;99.90;;;;;;5035182;28;20187;-78
2022/10/14 01:56:45;;;;;;;0.10;0.10;;;14.40;99.90;;;;;;5034033;28;20216;-78
2022/10/14 01:59:14;;;;;;;0.10;0.10;;;14.30;99.90;;;;;;5032824;28;20553;-78
2022/10/14 02:01:40;;;;;;;0.10;0.10;;;14.30;99.90;;;;;;5034029;28;20190;-78
2022/10/14 02:04:31;;;;;;;0.10;0.10;;;14.20;99.90;;;;;;5034769;28;20189;-78
2022/10/14 02:07:09;;;;;;;0.10;0.10;;;14.30;99.90;;;;;;5031306;28;20196;-78
2022/10/14 02:09:57;;;;;;;0.10;0.10;;;14.20;99.90;;;;;;5035194;28;20204;-78
2022/10/14 02:13:00;;;;;;;0.10;0.10;;;14.30;99.90;;;;;;5033141;28;20185;-78
2022/10/14 02:15:40;;;;;;;0.10;0.10;;;14.20;99.90;;;;;;5035457;28;20192;-78
2022/10/14 02:18:21;;;;;;;0.10;0.10;;;14.10;99.90;;;;;;5039007;28;20183;-78
2022/10/14 02:21:02;;;;;;;0.10;0.10;;;14.20;99.90;;;;;;5036053;28;20980;-78
2022/10/14 02:23:34;;;;;;;0.10;0.10;;;14.20;99.90;;;;;;5035219;28;20259;-78
2022/10/14 02:26:01;;;;;;;0.10;0.10;;;14.30;99.90;;;;;;5036341;28;20187;-78
2022/10/14 02:28:30;;;;;;;0.10;0.10;;;14.30;99.90;;;;;;5034223;28;20240;-78
2022/10/14 02:31:03;;;;;;;0.10;0.10;;;14.20;99.90;;;;;;5034492;28;20211;-78
2022/10/14 02:33:39;;;;;;;0.10;0.10;;;14.20;99.90;;;;;;5035487;28;20215;-78
2022/10/14 02:36:08;;;;;;;0.10;0.10;;;14.20;99.90;;;;;;5034601;28;20200;-78
2022/10/14 02:38:35;;;;;;;0.10;0.10;;;14.20;99.90;;;;;;5033667;28;20193;-78
2022/10/14 02:41:05;;;;;;;0.10;0.10;;;14.20;99.90;;;;;;5034247;28;20177;-78
2022/10/14 02:43:30;;;;;;;0.10;0.10;;;14.20;99.90;;;;;;5035092;28;20176;-78
2022/10/14 02:45:59;;;;;;;0.10;0.10;;;14.20;99.90;;;;;;5034919;28;20183;-78
2022/10/14 02:48:24;;;;;;;0.10;0.10;;;14.20;99.90;;;;;;5032390;28;20218;-78
2022/10/14 02:50:50;;;;;;;0.10;0.10;;;14.20;99.90;;;;;;5033928;28;20252;-79
2022/10/14 02:53:16;;;;;;;0.07;0.07;;;14.20;99.90;;;;;;5028246;28;20281;-78
2022/10/14 02:55:42;;;;;;;0.10;0.10;;;14.00;99.90;;;;;;5032118;28;21005;-79
2022/10/14 02:58:07;;;;;;;0.10;0.10;;;14.00;99.90;;;;;;5031263;28;20177;-78
2022/10/14 03:00:33;;;;;;;0.10;0.10;;;14.10;99.90;;;;;;5032481;28;20197;-78
2022/10/14 03:02:59;;;;;;;0.10;0.10;;;14.10;99.90;;;;;;5033611;28;20270;-78
2022/10/14 03:05:24;;;;;;;0.10;0.10;;;14.20;99.90;;;;;;5033101;28;20182;-78
2022/10/14 03:07:50;;;;;;;0.10;0.10;;;14.20;99.90;;;;;;5030366;28;20192;-78
2022/10/14 03:10:16;;;;;;;0.10;0.10;;;14.20;99.90;;;;;;5031607;28;20281;-79
2022/10/14 03:12:42;;;;;;;0.10;0.10;;;14.10;99.90;;;;;;5031082;28;20609;-79
2022/10/14 03:15:08;;;;;;;0.10;0.10;;;14.20;99.90;;;;;;5031987;28;20233;-78
2022/10/14 03:17:34;;;;;;;0.10;0.10;;;14.20;99.90;;;;;;5031761;28;20225;-78
2022/10/14 03:19:59;;;;;;;0.10;0.10;;;14.20;99.90;;;;;;5033119;28;20204;-79
2022/10/14 03:22:25;;;;;;;0.10;0.10;;;14.10;99.90;;;;;;5033638;28;20691;-79
2022/10/14 03:24:51;;;;;;;0.10;0.10;;;13.90;99.90;;;;;;5035506;28;20277;-79
2022/10/14 03:27:16;;;;;;;0.10;0.10;;;13.60;99.90;;;;;;5032803;28;20224;-79
2022/10/14 03:29:42;;;;;;;0.10;0.10;;;13.50;99.90;;;;;;5032712;28;20236;-78
2022/10/14 03:32:07;;;;;;;0.10;0.10;;;13.60;99.90;;;;;;5031230;28;20197;-79
2022/10/14 03:34:33;;;;;;;0.10;0.10;;;13.50;99.90;;;;;;5033297;28;20191;-78
2022/10/14 03:36:58;;;;;;;0.10;0.10;;;13.50;99.90;;;;;;5030672;28;20699;-78
2022/10/14 03:39:24;;;;;;;0.10;0.10;;;13.40;99.90;;;;;;5030435;28;20211;-78
2022/10/14 03:41:50;;;;;;;0.10;0.10;;;13.30;99.90;;;;;;5032217;28;20737;-79
2022/10/14 03:44:15;;;;;;;0.10;0.10;;;13.20;99.90;;;;;;5032912;28;20184;-79
2022/10/14 03:46:41;;;;;;;0.10;0.10;;;13.20;99.90;;;;;;5031771;28;20184;-78
2022/10/14 03:49:06;;;;;;;0.10;0.10;;;13.30;99.90;;;;;;5032653;28;20206;-78
2022/10/14 03:51:32;;;;;;;0.00;0.00;;;13.40;99.90;;;;;;5031111;28;20206;-79
2022/10/14 03:53:57;;;;;;;0.10;0.10;;;13.40;99.90;;;;;;5032923;28;20280;-79
2022/10/14 03:56:23;;;;;;;0.10;0.10;;;13.30;99.90;;;;;;5031908;28;20207;-78
2022/10/14 03:58:49;;;;;;;0.10;0.10;;;13.40;99.90;;;;;;5030600;28;20213;-79
2022/10/14 04:01:14;;;;;;;0.10;0.10;;;13.30;99.90;;;;;;5030458;28;20179;-78
2022/10/14 04:03:41;;;;;;;0.10;0.10;;;13.20;99.90;;;;;;5033196;28;20223;-78
2022/10/14 04:06:06;;;;;;;0.10;0.10;;;13.30;99.90;;;;;;5033031;28;20184;-78
2022/10/14 04:08:32;;;;;;;0.10;0.10;;;13.30;99.90;;;;;;5030053;28;20206;-78
2022/10/14 04:10:57;;;;;;;0.00;0.00;;;13.40;99.90;;;;;;5028867;28;20189;-78
2022/10/14 04:13:23;;;;;;;0.10;0.10;;;13.40;99.90;;;;;;5035134;28;20279;-78
2022/10/14 04:15:49;;;;;;;0.10;0.10;;;13.30;99.90;;;;;;5031195;28;20740;-78
2022/10/14 04:18:15;;;;;;;0.10;0.10;;;13.20;99.90;;;;;;5031465;28;20195;-79
2022/10/14 04:20:41;;;;;;;0.10;0.10;;;13.20;99.90;;;;;;5031017;28;20264;-78
2022/10/14 04:23:06;;;;;;;0.10;0.10;;;13.20;99.90;;;;;;5030886;28;20240;-78
2022/10/14 04:25:32;;;;;;;0.10;0.10;;;13.30;99.90;;;;;;5031247;28;20665;-78
2022/10/14 04:27:58;;;;;;;0.10;0.10;;;13.40;99.90;;;;;;5033966;28;20179;-79
2022/10/14 04:30:23;;;;;;;0.10;0.10;;;13.60;99.90;;;;;;5031760;28;21048;-78
2022/10/14 04:32:49;;;;;;;0.10;0.10;;;13.50;99.90;;;;;;5034004;28;20186;-78
2022/10/14 04:35:15;;;;;;;0.10;0.10;;;13.30;99.90;;;;;;5030279;28;20189;-78
2022/10/14 04:37:40;;;;;;;0.10;0.10;;;13.30;99.90;;;;;;5034615;28;20242;-78
2022/10/14 04:40:06;;;;;;;0.10;0.10;;;13.40;99.90;;;;;;5031885;28;20202;-78
2022/10/14 04:42:32;;;;;;;0.10;0.10;;;13.30;99.90;;;;;;5032177;28;20179;-78
2022/10/14 04:44:58;;;;;;;0.10;0.10;;;13.30;99.90;;;;;;5033723;28;20196;-79
2022/10/14 04:47:23;;;;;;;0.10;0.10;;;13.30;99.90;;;;;;5033864;28;20225;-78
2022/10/14 04:49:49;;;;;;;0.10;0.10;;;13.20;99.90;;;;;;5033983;28;20365;-78
2022/10/14 04:52:14;;;;;;;0.03;0.03;;;13.30;99.90;;;;;;5033030;28;20293;-78
2022/10/14 04:54:40;;;;;;;0.00;0.00;;;13.20;99.90;;;;;;5029584;28;20186;-78
2022/10/14 04:57:06;;;;;;;0.10;0.10;;;13.20;99.90;;;;;;5033344;28;20214;-79
2022/10/14 04:59:33;;;;;;;0.10;0.10;;;13.30;99.90;;;;;;5031932;28;20198;-78
2022/10/14 05:01:58;;;;;;;0.10;0.10;;;13.30;99.90;;;;;;5033919;28;20213;-78
2022/10/14 05:04:24;;;;;;;0.10;0.10;;;13.50;99.90;;;;;;5032150;28;20653;-79
2022/10/14 05:06:50;;;;;;;0.10;0.10;;;13.40;99.90;;;;;;5032071;28;20183;-79
2022/10/14 05:09:15;;;;;;;0.10;0.10;;;13.30;99.90;;;;;;5027461;28;20357;-78
2022/10/14 05:11:41;;;;;;;0.10;0.10;;;13.50;99.90;;;;;;5032301;28;20225;-78
2022/10/14 05:14:07;;;;;;;0.10;0.10;;;13.40;99.90;;;;;;5034254;28;20190;-79
2022/10/14 05:16:32;;;;;;;0.10;0.10;;;13.40;99.90;;;;;;5039098;28;20217;-79
2022/10/14 05:18:59;;;;;;;0.10;0.10;;;13.40;99.90;;;;;;5036573;28;20207;-79
2022/10/14 05:21:25;;;;;;;0.10;0.10;;;13.40;99.90;;;;;;5029723;28;20214;-79
2022/10/14 05:23:50;;;;;;;0.10;0.10;;;13.50;99.90;;;;;;5028481;28;20256;-78
2022/10/14 05:26:16;;;;;;;0.10;0.10;;;13.60;99.90;;;;;;5032691;28;20555;-78
2022/10/14 05:28:41;;;;;;;0.10;0.10;;;13.60;99.90;;;;;;5031371;28;20251;-79
2022/10/14 05:31:07;;;;;;;0.10;0.10;;;13.80;99.90;;;;;;5032451;28;20247;-78
2022/10/14 05:33:33;;;;;;;0.10;0.10;;;13.70;99.90;;;;;;5028367;28;20195;-78
2022/10/14 05:35:59;;;;;;;0.10;0.10;;;13.60;99.90;;;;;;5029289;28;20262;-78
2022/10/14 05:38:24;;;;;;;0.10;0.10;;;13.50;99.90;;;;;;5029252;28;20187;-78
2022/10/14 05:40:51;;;;;;;0.10;0.10;;;13.40;99.90;;;;;;5028890;28;20758;-78
2022/10/14 05:43:17;;;;;;;0.10;0.10;;;13.50;99.90;;;;;;5027978;28;20254;-78
2022/10/14 05:45:42;;;;;;;0.10;0.10;;;13.50;99.90;;;;;;5029559;28;20212;-78
2022/10/14 05:48:08;;;;;;;0.10;0.10;;;13.50;99.90;;;;;;5032038;28;20216;-78
2022/10/14 05:50:33;;;;;;;0.10;0.10;;;13.70;99.90;;;;;;5031711;28;20281;-78
2022/10/14 05:53:00;;;;;;;0.10;0.10;;;13.60;99.90;;;;;;5033451;28;20279;-78
2022/10/14 05:55:26;;;;;;;0.10;0.10;;;13.60;99.90;;;;;;5033507;28;20182;-78
2022/10/14 05:57:55;;;;;;;0.10;0.10;;;13.50;99.90;;;;;;5034866;28;20212;-79
2022/10/14 06:00:20;;;;;;;0.10;0.10;;;13.60;99.90;;;;;;5033399;28;20212;-78
2022/10/14 06:02:46;;;;;;;0.10;0.10;;;13.60;99.90;;;;;;5033311;28;20572;-77
2022/10/14 06:05:11;;;;;;;0.10;0.10;;;13.50;99.90;;;;;;5032144;28;20187;-79
2022/10/14 06:07:37;;;;;;;0.10;0.10;;;13.50;99.90;;;;;;5031893;28;20202;-78
2022/10/14 06:10:03;;;;;;;0.10;0.10;;;13.60;99.90;;;;;;5030488;28;20215;-78
2022/10/14 06:12:29;;;;;;;0.10;0.10;;;13.70;99.90;;;;;;5031112;28;20223;-78
2022/10/14 06:14:55;;;;;;;0.10;0.10;;;13.80;99.90;;;;;;5028261;28;20241;-79
2022/10/14 06:17:20;;;;;;;0.10;0.10;;;13.80;99.90;;;;;;5030450;28;20300;-78
2022/10/14 06:19:46;;;;;;;0.10;0.10;;;13.90;99.90;;;;;;5033272;28;20209;-78
2022/10/14 06:22:11;;;;;;;0.10;0.10;;;13.80;99.90;;;;;;5033808;28;20239;-78
2022/10/14 06:24:37;;;;;;;0.10;0.10;;;13.80;99.90;;;;;;5032650;28;20270;-79
2022/10/14 06:27:03;;;;;;;0.00;0.00;;;13.80;99.90;;;;;;5030638;28;20288;-79
2022/10/14 06:29:36;;;;;;;0.10;0.10;;;13.80;99.90;;;;;;5016220;28;20223;-78
2022/10/14 06:32:03;;;;;;;0.10;0.10;;;13.80;99.90;;;;;;5015875;28;20188;-78
2022/10/14 06:34:28;;;;;;;0.10;0.10;;;13.90;99.90;;;;;;5011668;28;20192;-78
2022/10/14 06:36:54;;;;;;;0.10;0.10;;;14.00;99.90;;;;;;5024757;28;20251;-78
2022/10/14 06:39:19;;;;;;;0.10;0.10;;;13.90;99.90;;;;;;5029426;28;20238;-78
2022/10/14 06:41:45;;;;;;;0.10;0.10;;;13.90;99.90;;;;;;5022820;28;20183;-78
2022/10/14 06:44:11;;;;;;;0.10;0.10;;;14.00;99.90;;;;;;5024874;28;20662;-79
2022/10/14 06:46:36;;;;;;;0.10;0.10;;;14.00;99.90;;;;;;5031844;28;20645;-79
2022/10/14 06:49:02;;;;;;;0.10;0.10;;;14.00;99.90;;;;;;5032377;28;20634;-79
2022/10/14 06:51:27;;;;;;;0.10;0.10;;;13.90;99.90;;;;;;5034529;28;20349;-79
2022/10/14 06:53:53;;;;;;;0.10;0.10;;;13.80;99.90;;;;;;5033021;28;20191;-79
2022/10/14 06:56:18;;;;;;;0.10;0.10;;;13.80;99.90;;;;;;5033076;28;20212;-79
2022/10/14 06:58:44;;;;;;;0.10;0.10;;;13.90;99.90;;;;;;5030616;28;20215;-79
2022/10/14 07:01:09;;;;;;;0.10;0.10;;;13.70;99.90;;;;;;5033504;28;20259;-80
2022/10/14 07:03:38;;;;;;;0.10;0.10;;;13.80;99.90;;;;;;5032322;28;20279;-79
2022/10/14 07:06:05;;;;;;;0.10;0.10;;;13.80;99.90;;;;;;5034154;28;20194;-80
2022/10/14 07:08:31;;;;;;;0.10;0.10;;;13.90;99.90;;;;;;5034164;28;20184;-80
2022/10/14 07:10:57;;;;;;;0.10;0.10;;;14.20;99.90;;;;;;5030212;28;20188;-79
2022/10/14 07:13:23;;;;;;;0.10;0.10;;;14.30;99.90;;;;;;5030894;28;20263;-80
2022/10/14 07:15:49;;;;;;;0.10;0.10;;;14.30;99.90;;;;;;5030621;28;20191;-78
2022/10/14 07:18:14;;;;;;;0.10;0.10;;;14.40;99.90;;;;;;5032931;28;20210;-79
2022/10/14 07:20:40;;;;;;;0.10;0.10;;;14.20;99.90;;;;;;5029434;28;20222;-79
2022/10/14 07:23:05;;;;;;;0.10;0.10;;;14.20;99.90;;;;;;5031379;28;20190;-78
2022/10/14 07:25:31;;;;;;;0.10;0.10;;;14.20;99.90;;;;;;5033142;28;20564;-79
2022/10/14 07:27:58;;;;;;;0.10;0.10;;;14.10;99.90;;;;;;5034799;28;20653;-79
2022/10/14 07:30:23;;;;;;;0.10;0.10;;;14.10;99.90;;;;;;5035213;28;20208;-79
2022/10/14 07:32:49;;;;;;;0.10;0.10;;;14.10;99.90;;;;;;5033306;28;20226;-79
2022/10/14 07:35:15;;;;;;;0.10;0.10;;;14.10;99.90;;;;;;5033721;28;20191;-78
2022/10/14 07:37:41;;;;;;;0.10;0.10;;;14.20;99.90;;;;;;5034414;28;20211;-79
2022/10/14 07:40:08;;;;;;;0.10;0.10;;;14.30;99.90;;;;;;5034957;28;20196;-79
2022/10/14 07:42:34;;;;;;;0.10;0.10;;;14.40;99.90;;;;;;5034881;28;20189;-79
2022/10/14 07:44:59;;;;;;;0.10;0.10;;;14.50;99.90;;;;;;5034783;28;20189;-79
2022/10/14 07:47:25;;;;;;;0.10;0.10;;;14.50;99.90;;;;;;5034944;28;20195;-79
2022/10/14 07:49:51;;;;;;;0.00;0.00;;;14.60;99.90;;;;;;5032712;28;20616;-79
2022/10/14 07:52:18;;;;;;;0.10;0.10;;;14.60;99.90;;;;;;5033090;28;21020;-79
2022/10/14 07:54:44;;;;;;;0.10;0.10;;;14.60;99.90;;;;;;5036025;28;20184;-79
2022/10/14 07:57:11;;;;;;;0.10;0.10;;;14.60;99.90;;;;;;5034199;28;20654;-79
2022/10/14 07:59:38;;;;;;;0.10;0.10;;;14.50;99.90;;;;;;5030050;28;20327;-79
2022/10/14 08:02:04;;;;;;;0.10;0.10;;;14.50;99.90;;;;;;5033563;28;20187;-79
2022/10/14 08:04:29;;;;;;;0.10;0.10;;;14.50;99.90;;;;;;5032038;28;20188;-80
2022/10/14 08:06:55;;;;;;;0.10;0.10;;;14.60;99.90;;;;;;5035299;28;20192;-79
2022/10/14 08:09:21;;;;;;;0.10;0.10;;;14.70;99.90;;;;;;5032119;28;20259;-79
2022/10/14 08:11:47;;;;;;;0.10;0.10;;;14.60;99.90;;;;;;5031010;28;20191;-79
2022/10/14 08:14:13;;;;;;;0.10;0.10;;;14.80;99.90;;;;;;5034964;28;20269;-79
2022/10/14 08:16:39;;;;;;;0.10;0.10;;;14.70;99.90;;;;;;5028846;28;20211;-79
2022/10/14 08:19:08;;;;;;;0.10;0.10;;;14.60;99.90;;;;;;5030298;28;20739;-79
2022/10/14 08:21:33;;;;;;;0.10;0.10;;;14.60;99.90;;;;;;5026834;28;20189;-79
2022/10/14 08:23:59;;;;;;;0.10;0.10;;;14.60;99.90;;;;;;5027402;28;20190;-79
2022/10/14 08:26:32;;;;;;;0.10;0.10;;;14.40;99.90;;;;;;5030601;28;21001;-79
2022/10/14 08:29:00;;;;;;;0.10;0.10;;;14.40;99.90;;;;;;5031564;28;20266;-80
2022/10/14 08:31:26;;;;;;;0.10;0.10;;;14.20;99.90;;;;;;5028580;28;20195;-78
2022/10/14 08:33:51;;;;;;;0.10;0.10;;;14.30;99.90;;;;;;5030440;28;20334;-78
2022/10/14 08:36:19;;;;;;;0.10;0.10;;;14.40;99.90;;;;;;5031799;28;20975;-78
2022/10/14 08:38:45;;;;;;;0.10;0.10;;;14.40;99.90;;;;;;5033080;28;20653;-78
2022/10/14 08:41:16;;;;;;;0.10;0.10;;;14.50;99.90;;;;;;5031734;28;20194;-78
2022/10/14 08:44:06;;;;;;;0.10;0.10;;;14.50;99.90;;;;;;5034144;28;20641;-78
2022/10/14 08:46:37;;;;;;;0.10;0.10;;;14.60;99.90;;;;;;5034446;28;20244;-78
2022/10/14 08:49:34;;;;;;;0.10;0.10;;;14.60;99.90;;;;;;5030560;28;21100;-78
2022/10/14 08:52:08;;;;;;;0.10;0.10;;;14.60;99.90;;;;;;5030446;28;20203;-78
2022/10/14 08:54:46;;;;;;;0.10;0.10;;;14.80;99.90;;;;;;5034090;28;20193;-78
2022/10/14 08:57:18;;;;;;;0.10;0.10;;;14.80;99.90;;;;;;5029937;28;20216;-78
2022/10/14 08:59:44;;;;;;;0.10;0.10;;;14.80;99.90;;;;;;5026282;28;20204;-78
2022/10/14 09:02:37;;;;;;;0.10;0.10;;;14.80;99.90;;;;;;5033169;28;20187;-79
2022/10/14 09:05:04;;;;;;;0.10;0.10;;;14.70;99.90;;;;;;5033088;28;21670;-78
2022/10/14 09:07:31;;;;;;;0.10;0.10;;;14.80;99.90;;;;;;5032704;28;20194;-78
2022/10/14 09:10:07;;;;;;;0.10;0.10;;;14.60;99.90;;;;;;5031955;28;20214;-78
2022/10/14 09:12:34;;;;;;;0.10;0.10;;;14.70;99.90;;;;;;5030843;28;20210;-79
2022/10/14 09:15:06;;;;;;;0.10;0.10;;;14.90;99.90;;;;;;5032983;28;20190;-78
2022/10/14 09:17:41;;;;;;;0.07;0.07;;;15.00;99.90;;;;;;5031912;28;20215;-78
2022/10/14 09:20:07;;;;;;;0.00;0.00;;;15.20;99.90;;;;;;5032775;28;20712;-78
2022/10/14 09:22:34;;;;;;;0.10;0.10;;;15.30;99.90;;;;;;5035469;28;20190;-78
2022/10/14 09:25:00;;;;;;;0.10;0.10;;;15.40;99.90;;;;;;5035443;28;20186;-78
2022/10/14 09:27:27;;;;;;;0.10;0.10;;;15.30;99.90;;;;;;5035313;28;20197;-79
2022/10/14 09:30:03;;;;;;;0.10;0.10;;;15.30;99.90;;;;;;5035187;28;20212;-78
2022/10/14 09:32:31;;;;;;;0.10;0.10;;;15.50;99.90;;;;;;5036542;28;20185;-79
2022/10/14 09:34:58;;;;;;;0.10;0.10;;;15.60;99.90;;;;;;5035636;28;20191;-78
2022/10/14 09:37:31;;;;;;;0.10;0.10;;;15.60;99.90;;;;;;5034666;28;20213;-78
2022/10/14 09:40:11;;;;;;;0.10;0.10;;;15.70;99.90;;;;;;5034171;28;20208;-78
2022/10/14 09:42:46;;;;;;;0.10;0.10;;;15.90;99.90;;;;;;5033922;28;20189;-78
2022/10/14 09:45:16;;;;;;;0.10;0.10;;;16.00;99.90;;;;;;5032514;28;20219;-78
2022/10/14 09:48:07;;;;;;;0.10;0.10;;;16.10;99.90;;;;;;5035136;28;20236;-79
2022/10/14 09:50:38;;;;;;;0.10;0.10;;;16.30;99.90;;;;;;5033571;28;20217;-78
2022/10/14 09:53:13;;;;;;;0.10;0.10;;;16.40;99.90;;;;;;5034505;28;20217;-79
2022/10/14 09:55:47;;;;;;;0.10;0.10;;;16.40;99.90;;;;;;5035269;28;20188;-78
2022/10/14 09:58:16;;;;;;;0.10;0.10;;;16.60;99.90;;;;;;5032449;28;20190;-78
2022/10/14 10:00:42;;;;;;;0.10;0.10;;;16.70;99.90;;;;;;5033531;28;20603;-78
2022/10/14 10:03:24;;;;;;;0.10;0.10;;;16.70;99.90;;;;;;5033004;28;20193;-78
2022/10/14 10:06:00;;;;;;;0.10;0.10;;;16.80;99.90;;;;;;5036158;28;20191;-79
2022/10/14 10:08:26;;;;;;;0.10;0.10;;;16.80;99.90;;;;;;5036086;28;20177;-78
2022/10/14 10:11:27;;;;;;;0.10;0.10;;;16.80;99.90;;;;;;5035508;28;20293;-79
2022/10/14 10:13:52;;;;;;;0.10;0.10;;;16.70;99.90;;;;;;5035005;28;20265;-79
2022/10/14 10:16:26;;;;;;;0.10;0.10;;;16.60;99.90;;;;;;5035349;28;20830;-80
2022/10/14 10:18:54;;;;;;;0.03;0.03;;;16.50;99.90;;;;;;5031584;28;21153;-79
2022/10/14 10:21:25;;;;;;;0.10;0.10;;;16.40;99.90;;;;;;5033274;28;20185;-80
2022/10/14 10:23:54;;;;;;;0.10;0.10;;;16.50;99.90;;;;;;5033415;28;20196;-79
2022/10/14 10:26:25;;;;;;;0.10;0.10;;;16.40;99.90;;;;;;5035325;28;20656;-79
2022/10/14 10:28:52;;;;;;;0.10;0.10;;;16.50;99.90;;;;;;5033353;28;20296;-79
2022/10/14 10:31:33;;;;;;;0.10;0.10;;;16.30;99.90;;;;;;5032493;28;20345;-79
2022/10/14 10:34:17;;;;;;;0.10;0.10;;;16.40;99.90;;;;;;5032127;28;20291;-79
2022/10/14 10:37:00;;;;;;;0.10;0.10;;;16.40;99.90;;;;;;5031163;28;20209;-79
2022/10/14 10:39:37;;;;;;;0.10;0.10;;;16.20;99.90;;;;;;5033989;28;20245;-80
2022/10/14 10:42:21;;;;;;;0.10;0.10;;;16.10;99.90;;;;;;5035127;28;20185;-79
2022/10/14 10:45:14;;;;;;;0.10;0.10;;;16.40;99.90;;;;;;5035281;28;20182;-80
2022/10/14 10:48:11;;;;;;;0.10;0.10;;;16.50;99.90;;;;;;5031933;28;20189;-80
2022/10/14 10:50:47;;;;;;;0.10;0.10;;;16.60;99.90;;;;;;5031884;28;20214;-79
2022/10/14 10:53:28;;;;;;;0.10;0.10;;;16.70;99.90;;;;;;5032386;28;20302;-80
2022/10/14 10:56:12;;;;;;;0.10;0.10;;;16.60;99.90;;;;;;5034225;28;20197;-79
2022/10/14 10:58:46;;;;;;;0.10;0.10;;;16.50;99.90;;;;;;5033528;28;21049;-79
2022/10/14 11:01:35;;;;;;;0.10;0.10;;;16.50;99.90;;;;;;5032376;28;21022;-79
2022/10/14 11:04:17;;;;;;;0.10;0.10;;;16.40;99.90;;;;;;5034660;28;20224;-80
2022/10/14 11:13:30;;;;;;;0.10;0.10;;;16.40;99.90;;;;;;5035890;28;20210;-79
2022/10/14 11:16:31;;;;;;;0.10;0.10;;;16.30;99.90;;;;;;4983938;28;20589;-79
2022/10/14 11:19:12;;;;;;;0.10;0.10;;;16.30;99.90;;;;;;5032251;28;20197;-80
2022/10/14 11:21:49;;;;;;;0.10;0.10;;;16.30;99.90;;;;;;5033620;28;20663;-79
2022/10/14 11:24:27;;;;;;;0.10;0.10;;;16.30;99.90;;;;;;5035627;28;20669;-79
2022/10/14 11:27:11;;;;;;;0.10;0.10;;;16.20;99.90;;;;;;5033443;28;20258;-80
2022/10/14 11:29:39;;;;;;;0.10;0.10;;;16.30;99.90;;;;;;5034240;28;20213;-79
2022/10/14 11:32:12;;;;;;;0.10;0.10;;;16.10;99.90;;;;;;5033050;28;20223;-79
2022/10/14 11:34:59;;;;;;;0.10;0.10;;;16.10;99.90;;;;;;5031710;28;20190;-80
2022/10/14 11:38:04;;;;;;;0.10;0.10;;;16.10;99.90;;;;;;5035936;28;20233;-80
2022/10/14 11:40:35;;;;;;;0.10;0.10;;;16.10;99.90;;;;;;5032617;28;20328;-80
2022/10/14 11:43:19;;;;;;;0.10;0.10;;;16.10;99.90;;;;;;5033437;28;20184;-79
2022/10/14 11:45:54;;;;;;;0.10;0.10;;;16.00;99.90;;;;;;5033406;28;20182;-79
2022/10/14 11:48:32;;;;;;;0.10;0.10;;;16.10;99.90;;;;;;5033090;28;20185;-80
2022/10/14 11:51:07;;;;;;;0.10;0.10;;;16.10;99.90;;;;;;5029119;28;20258;-79
2022/10/14 11:53:42;;;;;;;0.10;0.10;;;16.10;99.90;;;;;;5033442;28;20189;-79
2022/10/14 11:56:42;;;;;;;0.10;0.10;;;16.10;99.90;;;;;;5034566;28;20213;-80
2022/10/14 11:59:39;;;;;;;0.10;0.10;;;16.10;99.90;;;;;;5024194;28;21317;-79
2022/10/14 12:02:20;;;;;;;0.10;0.10;;;16.10;99.90;;;;;;5031072;28;20213;-79
2022/10/14 12:04:53;;;;;;;0.10;0.10;;;16.20;99.90;;;;;;5032287;28;20696;-79
2022/10/14 12:07:25;;;;;;;0.10;0.10;;;16.10;99.90;;;;;;5031269;28;20559;-79
2022/10/14 12:09:59;;;;;;;0.10;0.10;;;16.20;99.90;;;;;;5032005;28;20198;-80
2022/10/14 12:12:27;;;;;;;0.10;0.10;;;16.20;99.90;;;;;;5032491;28;20181;-79
2022/10/14 12:15:05;;;;;;;0.10;0.10;;;16.20;99.90;;;;;;5031737;28;20226;-79
2022/10/14 12:17:48;;;;;;;0.10;0.10;;;16.00;99.90;;;;;;5034297;28;20205;-79
2022/10/14 12:20:43;;;;;;;0.10;0.10;;;16.00;99.90;;;;;;5033043;28;20267;-80
2022/10/14 12:23:16;;;;;;;0.10;0.10;;;16.00;99.90;;;;;;5031882;28;20186;-79
2022/10/14 12:26:00;;;;;;;0.10;0.10;;;15.90;99.90;;;;;;5030957;28;20209;-79
2022/10/14 12:28:25;;;;;;;0.10;0.10;;;16.00;99.90;;;;;;5032260;28;20663;-79
2022/10/14 12:30:51;;;;;;;0.10;0.10;;;16.00;99.90;;;;;;5031479;28;20240;-79
2022/10/14 12:33:16;;;;;;;0.10;0.10;;;16.00;99.90;;;;;;5036679;28;20273;-79
2022/10/14 12:35:51;;;;;;;0.07;0.07;;;15.90;99.90;;;;;;5034351;28;21109;-79
2022/10/14 12:38:18;;;;;;;0.10;0.10;;;15.90;99.90;;;;;;5035506;28;20188;-80
2022/10/14 12:40:44;;;;;;;0.10;0.10;;;15.80;99.90;;;;;;5034579;28;20692;-80
2022/10/14 12:43:20;;;;;;;0.10;0.10;;;15.90;99.90;;;;;;5031951;28;20217;-79
2022/10/14 12:46:00;;;;;;;0.10;0.10;;;15.90;99.90;;;;;;5032358;28;20213;-79
2022/10/14 12:48:30;;;;;;;0.10;0.10;;;15.90;99.90;;;;;;5033759;28;21037;-80
2022/10/14 12:51:20;;;;;;;0.10;0.10;;;15.90;99.90;;;;;;5034092;28;20251;-79
2022/10/14 12:53:56;;;;;;;0.10;0.10;;;16.00;99.90;;;;;;5032679;28;20217;-79
2022/10/14 12:56:31;;;;;;;0.10;0.10;;;15.90;99.90;;;;;;5032877;28;20295;-79
2022/10/14 12:59:02;;;;;;;0.10;0.10;;;16.00;99.90;;;;;;5035471;28;20197;-80
2022/10/14 13:01:29;;;;;;;0.10;0.10;;;15.90;99.90;;;;;;5037344;28;20189;-80
2022/10/14 13:04:04;;;;;;;0.10;0.10;;;15.90;99.90;;;;;;5036823;28;20184;-80
2022/10/14 13:06:41;;;;;;;0.10;0.10;;;16.00;99.90;;;;;;5035518;28;21013;-80
2022/10/14 13:09:10;;;;;;;0.10;0.10;;;15.90;99.90;;;;;;5035839;28;20571;-81
2022/10/14 13:11:37;;;;;;;0.10;0.10;;;16.00;99.90;;;;;;5035535;28;20229;-80